Time;durP1;ratioP1;P1;durP2;ratioP2;P2;SDS_P1;SDS_P2;PMS_P1;PMS_P2;Temp;Humidity;BMP_temperature;BMP_pressure;BME280_temperature;BME280_humidity;BME280_pressure;Samples;Min_cycle;Max_cycle;Signal;HPM_P1;HPM_P2
2021/11/28 00:00:06;;;;;;;0.10;0.10;;;;;;;1.43;100.00;98719.94;5066650;28;20049;-82
2021/11/28 00:02:41;;;;;;;0.20;0.20;;;;;;;1.34;100.00;98721.53;5064357;28;20043;-82
2021/11/28 00:05:16;;;;;;;0.20;0.20;;;;;;;1.26;100.00;98728.25;5069883;28;20048;-82
2021/11/28 00:08:14;;;;;;;0.20;0.20;;;;;;;1.29;100.00;98721.56;5060327;28;20054;-82
2021/11/28 00:13:52;;;;;;;0.25;0.25;;;;;;;1.17;100.00;98728.00;5044743;28;20037;-82
2021/11/28 00:16:25;;;;;;;0.20;0.20;;;;;;;1.04;100.00;98730.34;5063733;28;20384;-82
2021/11/28 00:19:00;;;;;;;0.20;0.20;;;;;;;0.96;100.00;98720.97;5081226;28;20064;-82
2021/11/28 00:21:35;;;;;;;0.20;0.20;;;;;;;0.99;100.00;98731.16;5066394;28;20059;-82
2021/11/28 00:24:03;;;;;;;0.20;0.20;;;;;;;0.99;100.00;98728.47;5066684;28;20469;-82
2021/11/28 00:26:36;;;;;;;0.20;0.20;;;;;;;0.84;100.00;98731.91;5068494;28;20033;-82
2021/11/28 00:29:09;;;;;;;0.20;0.20;;;;;;;0.84;100.00;98726.56;5060158;28;20648;-82
2021/11/28 00:31:37;;;;;;;0.20;0.20;;;;;;;0.71;100.00;98725.19;5060843;28;20175;-82
2021/11/28 00:34:12;;;;;;;0.20;0.20;;;;;;;0.64;100.00;98727.31;5069254;28;20047;-82
2021/11/28 00:36:45;;;;;;;0.13;0.13;;;;;;;0.59;100.00;98719.25;5056440;28;20049;-82
2021/11/28 00:39:18;;;;;;;0.20;0.20;;;;;;;0.51;100.00;98723.22;5064993;28;20056;-82
2021/11/28 00:41:47;;;;;;;0.20;0.20;;;;;;;0.49;100.00;98720.81;5073871;28;20055;-81
2021/11/28 00:44:20;;;;;;;0.20;0.20;;;;;;;0.49;100.00;98725.38;5067601;28;20409;-82
2021/11/28 00:46:49;;;;;;;0.10;0.10;;;;;;;0.43;100.00;98727.22;5071661;28;20052;-82
2021/11/28 00:49:26;;;;;;;0.20;0.20;;;;;;;0.35;100.00;98730.41;5067336;28;20048;-83
2021/11/28 00:51:59;;;;;;;0.20;0.20;;;;;;;0.27;100.00;98730.91;5060840;28;20051;-82
2021/11/28 00:54:32;;;;;;;0.20;0.20;;;;;;;0.26;100.00;98727.44;5059579;28;20492;-83
2021/11/28 00:57:06;;;;;;;0.20;0.20;;;;;;;0.25;100.00;98733.00;5066865;28;20040;-82
2021/11/28 00:59:34;;;;;;;0.20;0.20;;;;;;;0.15;100.00;98744.47;5063840;28;20052;-82
2021/11/28 01:02:08;;;;;;;0.13;0.13;;;;;;;0.14;100.00;98734.84;5062285;28;20056;-83
2021/11/28 01:04:43;;;;;;;0.20;0.20;;;;;;;0.04;100.00;98740.13;5060407;28;20586;-82
2021/11/28 01:07:16;;;;;;;0.13;0.13;;;;;;;-0.02;100.00;98724.03;5066806;28;20047;-82
2021/11/28 01:09:49;;;;;;;0.20;0.20;;;;;;;-0.03;100.00;98741.16;5058460;28;20055;-82
2021/11/28 01:12:24;;;;;;;0.20;0.20;;;;;;;-0.01;100.00;98741.69;5067961;28;20044;-82
2021/11/28 01:14:57;;;;;;;0.20;0.20;;;;;;;-0.05;100.00;98742.47;5066780;28;20485;-82
2021/11/28 01:17:32;;;;;;;0.10;0.10;;;;;;;-0.06;100.00;98730.16;5062604;28;20464;-82
2021/11/28 01:20:03;;;;;;;0.20;0.20;;;;;;;-0.07;100.00;98732.06;5066003;28;20052;-82
2021/11/28 01:22:32;;;;;;;0.20;0.20;;;;;;;-0.07;100.00;98736.56;5061850;28;20063;-82
2021/11/28 01:25:08;;;;;;;0.17;0.17;;;;;;;-0.12;100.00;98742.69;5062167;28;20040;-82
2021/11/28 01:27:42;;;;;;;0.10;0.10;;;;;;;-0.17;100.00;98745.34;5061229;28;20037;-82
2021/11/28 01:30:16;;;;;;;0.10;0.10;;;;;;;-0.09;100.00;98752.09;5065219;28;20040;-83
2021/11/28 01:32:50;;;;;;;0.20;0.20;;;;;;;-0.20;100.00;98757.34;5068153;28;20051;-81
2021/11/28 01:35:26;;;;;;;0.10;0.10;;;;;;;-0.21;100.00;98738.88;5065064;28;20404;-83
2021/11/28 01:37:59;;;;;;;0.20;0.20;;;;;;;-0.17;100.00;98748.00;5060111;28;20056;-82
2021/11/28 01:40:27;;;;;;;0.20;0.20;;;;;;;-0.26;100.00;98749.53;5065427;28;20071;-82
2021/11/28 01:43:01;;;;;;;0.20;0.20;;;;;;;-0.26;100.00;98750.34;5059822;28;20586;-82
2021/11/28 01:45:33;;;;;;;0.20;0.20;;;;;;;-0.21;100.00;98747.72;5061039;28;20040;-82
2021/11/28 01:48:09;;;;;;;0.20;0.20;;;;;;;-0.27;100.00;98747.94;5062650;28;20060;-82
2021/11/28 01:50:47;;;;;;;0.20;0.20;;;;;;;-0.20;100.00;98743.19;5066036;28;20048;-82
2021/11/28 01:53:23;;;;;;;0.20;0.20;;;;;;;-0.26;100.00;98733.50;5076540;28;20055;-82
2021/11/28 01:55:57;;;;;;;0.17;0.17;;;;;;;-0.42;100.00;98735.25;5069825;28;20048;-82
2021/11/28 01:58:36;;;;;;;0.10;0.10;;;;;;;-0.32;100.00;98743.34;5065731;28;20041;-83
2021/11/28 02:01:12;;;;;;;0.10;0.10;;;;;;;-0.28;100.00;98746.31;5067538;28;20057;-82
2021/11/28 02:03:47;;;;;;;0.20;0.20;;;;;;;-0.26;100.00;98753.03;5063161;28;20048;-82
2021/11/28 02:06:21;;;;;;;0.10;0.10;;;;;;;-0.30;100.00;98746.59;5064613;28;20044;-82
2021/11/28 02:08:56;;;;;;;0.20;0.20;;;;;;;-0.39;100.00;98748.94;5057498;28;20389;-82
2021/11/28 02:11:24;;;;;;;0.20;0.20;;;;;;;-0.37;100.00;98751.34;5064065;28;20052;-82
2021/11/28 02:13:53;;;;;;;0.20;0.20;;;;;;;-0.31;100.00;98752.19;5063992;28;20468;-82
2021/11/28 02:16:26;;;;;;;0.20;0.20;;;;;;;-0.31;100.00;98752.19;5067212;28;20461;-82
2021/11/28 02:18:55;;;;;;;0.20;0.20;;;;;;;-0.25;100.00;98748.47;5064525;28;20045;-82
2021/11/28 02:21:29;;;;;;;0.20;0.20;;;;;;;-0.25;100.00;98741.28;5063897;28;20054;-82
2021/11/28 02:23:58;;;;;;;0.20;0.20;;;;;;;-0.37;100.00;98740.66;5065286;28;20045;-82
2021/11/28 02:26:31;;;;;;;0.20;0.20;;;;;;;-0.32;100.00;98746.03;5065119;28;20055;-82
2021/11/28 02:29:04;;;;;;;0.20;0.20;;;;;;;-0.35;100.00;98736.66;5080258;28;20057;-82
2021/11/28 02:31:37;;;;;;;0.20;0.20;;;;;;;-0.35;100.00;98738.53;5060660;28;20033;-82
2021/11/28 02:34:11;;;;;;;0.20;0.20;;;;;;;-0.28;100.00;98735.63;5062642;28;20509;-83
2021/11/28 02:36:45;;;;;;;0.20;0.20;;;;;;;-0.36;100.00;98739.56;5063559;28;20045;-82
2021/11/28 02:39:19;;;;;;;0.20;0.20;;;;;;;-0.30;100.00;98738.56;5061753;28;20068;-82
2021/11/28 02:41:55;;;;;;;0.20;0.20;;;;;;;-0.32;100.00;98739.88;5072631;28;20650;-83
2021/11/28 02:44:30;;;;;;;0.20;0.20;;;;;;;-0.30;100.00;98738.56;5073301;28;20057;-82
2021/11/28 02:46:58;;;;;;;0.30;0.30;;;;;;;-0.36;100.00;98736.91;5070514;28;20396;-82
2021/11/28 02:49:31;;;;;;;0.20;0.20;;;;;;;-0.29;100.00;98737.50;5059591;28;20531;-82
2021/11/28 02:52:10;;;;;;;0.17;0.17;;;;;;;-0.29;100.00;98734.00;5066576;28;20409;-82
2021/11/28 02:54:43;;;;;;;0.20;0.20;;;;;;;-0.29;100.00;98742.84;5063011;28;20041;-82
2021/11/28 02:57:16;;;;;;;0.20;0.20;;;;;;;-0.35;100.00;98746.53;5070293;28;20044;-82
2021/11/28 02:59:49;;;;;;;0.20;0.20;;;;;;;-0.34;100.00;98732.13;5065664;28;20504;-82
2021/11/28 03:02:24;;;;;;;0.20;0.20;;;;;;;-0.30;100.00;98749.25;5071833;28;20052;-82
2021/11/28 03:04:58;;;;;;;0.20;0.20;;;;;;;-0.31;100.00;98750.31;5064555;28;20041;-82
2021/11/28 03:07:33;;;;;;;0.25;0.25;;;;;;;-0.28;100.00;98752.47;5067225;28;20051;-82
2021/11/28 03:10:01;;;;;;;0.20;0.20;;;;;;;-0.36;100.00;98742.25;5063495;28;20052;-82
2021/11/28 03:12:35;;;;;;;0.20;0.20;;;;;;;-0.28;100.00;98749.78;5070455;28;20052;-82
2021/11/28 03:15:03;;;;;;;0.20;0.20;;;;;;;-0.31;100.00;98750.31;5073189;28;20052;-81
2021/11/28 03:17:36;;;;;;;0.13;0.13;;;;;;;-0.35;100.00;98731.31;5063413;28;20118;-81
2021/11/28 03:20:11;;;;;;;0.20;0.20;;;;;;;-0.35;100.00;98757.22;5065676;28;20071;-82
2021/11/28 03:22:47;;;;;;;0.20;0.20;;;;;;;-0.30;100.00;98756.44;5070409;28;20040;-82
2021/11/28 03:25:22;;;;;;;0.17;0.17;;;;;;;-0.23;100.00;98754.41;5066694;28;20059;-82
2021/11/28 03:27:51;;;;;;;0.20;0.20;;;;;;;-0.21;100.00;98750.41;5060276;28;20053;-82
2021/11/28 03:30:22;;;;;;;0.20;0.20;;;;;;;-0.22;100.00;98754.13;5070719;28;20420;-82
2021/11/28 03:33:15;;;;;;;0.20;0.20;;;;;;;-0.16;100.00;98757.66;5069862;28;20048;-82
2021/11/28 03:36:01;;;;;;;;;;;;;;;-0.19;100.00;98755.50;5069922;28;20053;-82
2021/11/28 03:38:31;;;;;;;0.20;0.20;;;;;;;-0.21;100.00;98757.59;5074058;28;19923;-82
2021/11/28 03:41:04;;;;;;;0.20;0.20;;;;;;;-0.16;100.00;98762.19;5061748;28;20509;-82
2021/11/28 03:43:39;;;;;;;0.20;0.20;;;;;;;-0.16;100.00;98763.00;5071824;28;20048;-81
2021/11/28 03:46:13;;;;;;;0.20;0.20;;;;;;;-0.20;100.00;98765.38;5068459;28;20384;-82
2021/11/28 03:48:46;;;;;;;0.10;0.10;;;;;;;-0.20;100.00;98767.25;5067881;28;20052;-82
2021/11/28 03:51:24;;;;;;;0.20;0.20;;;;;;;-0.20;100.00;98761.91;5067502;28;20059;-82
2021/11/28 03:53:59;;;;;;;0.20;0.20;;;;;;;-0.19;100.00;98766.19;5062114;28;20057;-82
2021/11/28 03:56:34;;;;;;;0.10;0.10;;;;;;;-0.21;100.00;98769.13;5064681;28;20041;-82
2021/11/28 03:59:04;;;;;;;0.20;0.20;;;;;;;-0.23;100.00;98767.75;5066642;28;20053;-82
2021/11/28 04:01:37;;;;;;;0.20;0.20;;;;;;;-0.26;100.00;98765.56;5059950;28;20045;-81
2021/11/28 04:04:11;;;;;;;0.20;0.20;;;;;;;-0.32;100.00;98753.25;5062369;28;20429;-82
2021/11/28 04:07:03;;;;;;;0.20;0.20;;;;;;;-0.19;100.00;98772.31;5067627;28;20421;-82
2021/11/28 04:09:38;;;;;;;0.17;0.17;;;;;;;-0.22;100.00;98762.16;5068098;28;20056;-82
2021/11/28 04:12:09;;;;;;;0.10;0.10;;;;;;;-0.20;100.00;98770.72;5068975;28;20508;-82
2021/11/28 04:14:43;;;;;;;0.20;0.20;;;;;;;-0.16;100.00;98762.19;5072036;28;20036;-82
2021/11/28 04:17:16;;;;;;;0.20;0.20;;;;;;;-0.20;100.00;98756.53;5070080;28;20064;-81
2021/11/28 04:19:50;;;;;;;0.10;0.10;;;;;;;-0.22;100.00;98754.13;5070939;28;20049;-81
2021/11/28 04:22:19;;;;;;;0.20;0.20;;;;;;;-0.19;100.00;98753.63;5079140;28;20059;-82
2021/11/28 04:24:54;;;;;;;0.20;0.20;;;;;;;-0.18;100.00;98757.09;5066089;28;20040;-82
2021/11/28 04:27:28;;;;;;;0.20;0.20;;;;;;;-0.15;100.00;98755.75;5062840;28;20052;-82
2021/11/28 04:30:01;;;;;;;0.20;0.20;;;;;;;-0.16;100.00;98763.00;5067055;28;20044;-82
2021/11/28 04:32:30;;;;;;;0.20;0.20;;;;;;;-0.14;100.00;98763.53;5064856;28;20049;-82
2021/11/28 04:35:05;;;;;;;0.20;0.20;;;;;;;-0.05;100.00;98764.66;5065360;28;20052;-82
2021/11/28 04:37:39;;;;;;;0.20;0.20;;;;;;;-0.09;100.00;98765.44;5070886;28;20032;-83
2021/11/28 04:40:10;;;;;;;0.20;0.20;;;;;;;-0.04;100.00;98773.53;5067870;28;20044;-82
2021/11/28 04:42:44;;;;;;;0.20;0.20;;;;;;;0.03;100.00;98771.41;5069730;28;20055;-82
2021/11/28 04:45:18;;;;;;;0.20;0.20;;;;;;;0.00;100.00;98779.97;5061534;28;20071;-82
2021/11/28 04:47:47;;;;;;;0.20;0.20;;;;;;;-0.05;100.00;98770.03;5072175;28;20052;-82
2021/11/28 04:50:16;;;;;;;0.20;0.20;;;;;;;-0.05;100.00;98780.72;5062009;28;20053;-82
2021/11/28 04:52:49;;;;;;;0.17;0.17;;;;;;;-0.01;100.00;98775.66;5063831;28;20056;-82
2021/11/28 04:55:24;;;;;;;0.10;0.10;;;;;;;-0.05;100.00;98772.69;5059706;28;20052;-82
2021/11/28 04:57:57;;;;;;;0.20;0.20;;;;;;;0.05;100.00;98779.19;5065104;28;20064;-82
2021/11/28 05:00:31;;;;;;;0.17;0.17;;;;;;;0.00;100.00;98777.28;5058038;28;20048;-82
2021/11/28 05:03:08;;;;;;;0.20;0.20;;;;;;;0.04;100.00;98789.06;5060644;28;20052;-82
2021/11/28 05:06:01;;;;;;;0.28;0.28;;;;;;;0.01;100.00;98786.91;5060600;28;20052;-82
2021/11/28 05:08:52;;;;;;;0.20;0.20;;;;;;;0.01;100.00;98786.91;5066601;28;20059;-82
2021/11/28 05:11:27;;;;;;;0.20;0.20;;;;;;;0.01;100.00;98789.56;5069149;28;20048;-81
2021/11/28 05:14:00;;;;;;;0.20;0.20;;;;;;;0.06;100.00;98786.94;5062016;28;20489;-82
2021/11/28 05:16:29;;;;;;;0.10;0.10;;;;;;;0.04;100.00;98783.72;5063432;28;20056;-82
2021/11/28 05:19:19;;;;;;;0.20;0.20;;;;;;;0.01;100.00;98784.22;5065615;28;20049;-82
2021/11/28 05:22:12;;;;;;;0.20;0.20;;;;;;;0.03;100.00;98787.47;5066006;28;20071;-81
2021/11/28 05:24:43;;;;;;;0.20;0.20;;;;;;;0.07;100.00;98798.44;5069167;28;20053;-81
2021/11/28 05:27:18;;;;;;;0.15;0.15;;;;;;;-0.07;100.00;98785.53;5057341;28;20128;-82
2021/11/28 05:29:52;;;;;;;0.20;0.20;;;;;;;0.03;100.00;98790.16;5066992;28;20049;-82
2021/11/28 05:32:27;;;;;;;0.20;0.20;;;;;;;0.02;100.00;98790.41;5065422;28;20052;-81
2021/11/28 05:35:13;;;;;;;0.20;0.20;;;;;;;0.05;100.00;98790.69;5074595;28;20063;-81
2021/11/28 05:38:14;;;;;;;0.20;0.20;;;;;;;0.01;100.00;98792.25;5070699;28;20535;-82
2021/11/28 05:40:44;;;;;;;0.20;0.20;;;;;;;0.08;100.00;98794.72;5071287;28;20044;-82
2021/11/28 05:43:18;;;;;;;0.20;0.20;;;;;;;0.12;100.00;98799.28;5074232;28;20051;-83
2021/11/28 05:45:52;;;;;;;0.20;0.20;;;;;;;0.11;100.00;98799.53;5066399;28;20048;-82
2021/11/28 05:48:43;;;;;;;0.20;0.20;;;;;;;0.10;100.00;98812.13;5068140;28;20155;-83
2021/11/28 05:51:46;;;;;;;0.20;0.20;;;;;;;0.15;100.00;98803.31;5063003;28;20523;-82
2021/11/28 05:54:14;;;;;;;0.20;0.20;;;;;;;0.16;100.00;98795.03;5054618;28;20049;-82
2021/11/28 05:56:47;;;;;;;0.20;0.20;;;;;;;0.18;100.00;98808.16;5065317;28;20416;-82
2021/11/28 05:59:22;;;;;;;0.20;0.20;;;;;;;0.11;100.00;98787.00;5062686;28;20048;-82
2021/11/28 06:01:58;;;;;;;0.20;0.20;;;;;;;0.16;100.00;98787.00;5062889;28;20053;-82
2021/11/28 06:04:32;;;;;;;0.20;0.20;;;;;;;0.21;100.00;98788.91;5062242;28;20055;-82
2021/11/28 06:07:28;;;;;;;0.20;0.20;;;;;;;0.19;100.00;98792.91;5066191;28;20063;-83
2021/11/28 06:10:02;;;;;;;0.20;0.20;;;;;;;0.22;100.00;98795.91;5067636;28;20057;-82
2021/11/28 06:12:37;;;;;;;0.20;0.20;;;;;;;0.25;100.00;98797.22;5062777;28;20045;-82
2021/11/28 06:15:11;;;;;;;0.20;0.20;;;;;;;0.15;100.00;98785.41;5068083;28;20063;-82
2021/11/28 06:18:03;;;;;;;0.20;0.20;;;;;;;0.40;100.00;98802.69;5070253;28;20056;-82
2021/11/28 06:20:54;;;;;;;0.13;0.13;;;;;;;0.28;100.00;98807.44;5066934;28;20056;-83
2021/11/28 06:23:30;;;;;;;0.20;0.20;;;;;;;0.27;100.00;98811.97;5073439;28;20051;-82
2021/11/28 06:26:05;;;;;;;0.20;0.20;;;;;;;0.20;100.00;98813.25;5062827;28;20056;-82
2021/11/28 06:28:41;;;;;;;0.20;0.20;;;;;;;0.24;100.00;98815.16;5063888;28;20059;-81
2021/11/28 06:31:18;;;;;;;0.30;0.30;;;;;;;0.23;100.00;98818.09;5067679;28;20647;-82
2021/11/28 06:34:24;;;;;;;0.20;0.20;;;;;;;0.27;100.00;98819.19;5079500;28;20055;-82
2021/11/28 06:37:16;;;;;;;0.10;0.10;;;;;;;0.17;100.00;98818.03;5078647;28;20065;-82
2021/11/28 06:40:15;;;;;;;0.20;0.20;;;;;;;0.21;100.00;98814.84;5065953;28;20056;-82
2021/11/28 06:42:54;;;;;;;0.20;0.20;;;;;;;0.34;100.00;98819.75;5072829;28;20060;-82
2021/11/28 06:45:28;;;;;;;0.20;0.20;;;;;;;0.29;100.00;98820.53;5070099;28;20045;-82
2021/11/28 06:48:06;;;;;;;0.20;0.20;;;;;;;0.29;100.00;98819.72;5067929;28;20051;-82
2021/11/28 06:50:52;;;;;;;0.20;0.20;;;;;;;0.22;100.00;98829.84;5065781;28;20496;-83
2021/11/28 06:53:31;;;;;;;0.22;0.22;;;;;;;0.22;100.00;98833.34;5074310;28;20056;-82
2021/11/28 06:56:39;;;;;;;0.20;0.20;;;;;;;0.15;100.00;98822.03;5059231;28;20396;-82
2021/11/28 06:59:12;;;;;;;0.20;0.20;;;;;;;0.25;100.00;98842.69;5063571;28;20816;-82
2021/11/28 07:01:48;;;;;;;0.20;0.20;;;;;;;0.25;100.00;98850.72;5073742;28;20048;-82
2021/11/28 07:04:28;;;;;;;0.30;0.30;;;;;;;0.30;100.00;98843.56;5066128;28;20048;-82
2021/11/28 07:07:20;;;;;;;0.15;0.15;;;;;;;0.33;100.00;98839.53;5068660;28;20435;-82
2021/11/28 07:10:05;;;;;;;0.20;0.20;;;;;;;0.35;100.00;98850.81;5069804;28;20408;-82
2021/11/28 07:12:33;;;;;;;0.30;0.30;;;;;;;0.40;100.00;98845.50;5072177;28;20043;-82
2021/11/28 07:15:16;;;;;;;0.20;0.20;;;;;;;0.38;100.00;98844.94;5070052;28;20472;-82
2021/11/28 07:17:51;;;;;;;0.20;0.20;;;;;;;0.37;100.00;98846.00;5069539;28;20048;-82
2021/11/28 07:20:48;;;;;;;0.20;0.20;;;;;;;0.37;100.00;98839.84;5064704;28;20405;-83
2021/11/28 07:23:22;;;;;;;0.20;0.20;;;;;;;0.40;100.00;98850.03;5065135;28;20048;-82
2021/11/28 07:25:50;;;;;;;0.20;0.20;;;;;;;0.49;100.00;98845.81;5065161;28;20045;-82
2021/11/28 07:28:32;;;;;;;0.10;0.10;;;;;;;0.52;100.00;98845.28;5066516;28;20052;-82
2021/11/28 07:31:06;;;;;;;0.20;0.20;;;;;;;0.45;100.00;98842.03;5065556;28;20511;-83
2021/11/28 07:33:58;;;;;;;0.20;0.20;;;;;;;0.50;100.00;98861.63;5077161;28;20780;-83
2021/11/28 07:36:51;;;;;;;0.20;0.20;;;;;;;0.56;100.00;98843.72;5085208;28;20056;-82
2021/11/28 07:39:24;;;;;;;0.28;0.28;;;;;;;0.69;100.00;98863.84;5071674;28;20066;-83
2021/11/28 07:41:57;;;;;;;0.20;0.20;;;;;;;0.65;100.00;98860.09;5070168;28;20052;-82
2021/11/28 07:44:36;;;;;;;0.13;0.13;;;;;;;0.68;100.00;98865.72;5081096;28;20762;-82
2021/11/28 07:47:29;;;;;;;0.10;0.10;;;;;;;0.65;100.00;98876.16;5071591;28;20059;-82
2021/11/28 07:50:16;;;;;;;0.20;0.20;;;;;;;0.76;100.00;98871.66;5072782;28;20061;-82
2021/11/28 07:52:48;;;;;;;0.17;0.17;;;;;;;0.73;100.00;98878.34;5073774;28;20056;-83
2021/11/28 07:55:26;;;;;;;0.20;0.20;;;;;;;0.71;100.00;98868.97;5065998;28;20874;-83
2021/11/28 07:58:00;;;;;;;0.20;0.20;;;;;;;0.75;100.00;98872.75;5073529;28;20480;-83
2021/11/28 08:01:04;;;;;;;0.20;0.20;;;;;;;0.82;100.00;98871.44;5056132;28;20067;-81
2021/11/28 08:03:37;;;;;;;0.20;0.20;;;;;;;0.80;100.00;98870.91;5066512;28;20417;-82
2021/11/28 08:06:45;;;;;;;0.22;0.22;;;;;;;0.92;100.00;98872.56;5005652;28;20060;-82
2021/11/28 08:09:46;;;;;;;0.20;0.20;;;;;;;0.95;100.00;98872.03;5067340;28;20055;-82
2021/11/28 08:12:21;;;;;;;0.10;0.10;;;;;;;0.98;100.00;98871.50;5076360;28;20048;-83
2021/11/28 08:14:54;;;;;;;0.20;0.20;;;;;;;1.01;100.00;98868.31;5066920;28;20052;-82
2021/11/28 08:17:22;;;;;;;0.20;0.20;;;;;;;0.99;100.00;98875.78;5063791;28;20049;-82
2021/11/28 08:19:56;;;;;;;0.20;0.20;;;;;;;0.99;100.00;98876.59;5057971;28;20061;-83
2021/11/28 08:22:29;;;;;;;0.20;0.20;;;;;;;1.01;100.00;98879.03;5063457;28;20052;-83
2021/11/28 08:25:05;;;;;;;0.20;0.20;;;;;;;1.04;100.00;98875.00;5068364;28;20060;-82
2021/11/28 08:27:39;;;;;;;0.20;0.20;;;;;;;1.05;100.00;98881.97;5065701;28;20382;-82
2021/11/28 08:30:14;;;;;;;0.20;0.20;;;;;;;1.03;100.00;98874.22;5074624;28;20049;-82
2021/11/28 08:33:11;;;;;;;0.20;0.20;;;;;;;1.10;100.00;98876.66;5069713;28;20048;-82
2021/11/28 08:36:08;;;;;;;;;;;;;;;1.14;100.00;98875.06;5060689;28;20195;-81
2021/11/28 08:38:43;;;;;;;0.20;0.20;;;;;;;1.05;100.00;98877.44;5065852;28;20380;-81
2021/11/28 08:41:20;;;;;;;0.20;0.20;;;;;;;1.01;100.00;98865.63;5062449;28;20401;-82
2021/11/28 08:43:53;;;;;;;0.30;0.30;;;;;;;1.12;100.00;98886.03;5064382;28;20033;-82
2021/11/28 08:46:26;;;;;;;0.20;0.20;;;;;;;1.05;100.00;98876.63;5065723;28;20064;-83
2021/11/28 08:48:59;;;;;;;0.20;0.20;;;;;;;1.13;100.00;98879.63;5058801;28;20049;-85
2021/11/28 08:51:34;;;;;;;0.20;0.20;;;;;;;1.13;100.00;98884.16;5073087;28;20626;-83
2021/11/28 08:54:12;;;;;;;0.20;0.20;;;;;;;1.16;100.00;98878.28;5070248;28;20056;-83
2021/11/28 08:56:44;;;;;;;0.20;0.20;;;;;;;1.13;100.00;98878.81;5061932;28;20044;-81
2021/11/28 08:59:17;;;;;;;0.20;0.20;;;;;;;1.13;100.00;98876.94;5066641;28;20045;-81
2021/11/28 09:01:51;;;;;;;0.20;0.20;;;;;;;1.01;100.00;98879.84;5063253;28;20047;-82
2021/11/28 09:04:24;;;;;;;0.20;0.20;;;;;;;1.02;100.00;98877.94;5060202;28;20060;-81
2021/11/28 09:06:57;;;;;;;0.10;0.10;;;;;;;0.98;100.00;98884.88;5075627;28;20048;-81
2021/11/28 09:09:31;;;;;;;0.20;0.20;;;;;;;1.06;100.00;98886.28;5064384;28;20037;-82
2021/11/28 09:12:07;;;;;;;0.20;0.20;;;;;;;1.09;100.00;98880.38;5064370;28;20060;-82
2021/11/28 09:14:40;;;;;;;0.20;0.20;;;;;;;1.23;100.00;98880.72;5058732;28;20049;-85
2021/11/28 09:17:13;;;;;;;0.20;0.20;;;;;;;1.12;100.00;98878.00;5061822;28;20045;-81
2021/11/28 09:19:51;;;;;;;0.20;0.20;;;;;;;1.23;100.00;98891.44;5059394;28;20060;-82
2021/11/28 09:22:34;;;;;;;0.20;0.20;;;;;;;1.17;100.00;98894.13;5062874;28;20055;-82
2021/11/28 09:25:02;;;;;;;0.20;0.20;;;;;;;1.18;100.00;98889.53;5041795;28;20083;-83
2021/11/28 09:27:44;;;;;;;0.10;0.10;;;;;;;1.29;100.00;98893.88;5058001;28;20066;-82
2021/11/28 09:30:20;;;;;;;0.20;0.20;;;;;;;1.30;100.00;98890.13;5053876;28;20116;-82
2021/11/28 09:32:56;;;;;;;0.20;0.20;;;;;;;1.33;100.00;98889.59;5054489;28;20052;-81
2021/11/28 09:35:30;;;;;;;0.20;0.20;;;;;;;1.35;100.00;98892.84;5056845;28;20543;-81
2021/11/28 09:38:04;;;;;;;0.25;0.25;;;;;;;1.35;100.00;98887.47;5059450;28;20064;-82
2021/11/28 09:40:41;;;;;;;0.20;0.20;;;;;;;1.44;100.00;98887.75;5056438;28;20049;-81
2021/11/28 09:43:16;;;;;;;0.20;0.20;;;;;;;1.41;100.00;98884.78;5061333;28;20047;-81
2021/11/28 09:45:51;;;;;;;0.20;0.20;;;;;;;1.42;100.00;98883.72;5061932;28;20051;-82
2021/11/28 09:48:23;;;;;;;0.20;0.20;;;;;;;1.40;100.00;98884.00;5060614;28;20488;-82
2021/11/28 09:50:51;;;;;;;0.20;0.20;;;;;;;1.36;100.00;98883.72;5064776;28;20492;-82
2021/11/28 09:53:25;;;;;;;0.10;0.10;;;;;;;1.42;100.00;98886.41;5064953;28;20070;-82
2021/11/28 09:55:58;;;;;;;0.22;0.22;;;;;;;1.39;100.00;98868.97;5067089;28;20072;-82
2021/11/28 09:58:33;;;;;;;0.17;0.17;;;;;;;1.43;100.00;98880.00;5067110;28;20056;-82
2021/11/28 10:01:06;;;;;;;0.20;0.20;;;;;;;1.43;100.00;98880.00;5065129;28;20049;-81
2021/11/28 10:03:40;;;;;;;0.20;0.20;;;;;;;1.43;100.00;98875.41;5065748;28;20056;-82
2021/11/28 10:06:14;;;;;;;0.20;0.20;;;;;;;1.49;100.00;98878.91;5056116;28;20041;-82
2021/11/28 10:08:48;;;;;;;0.20;0.20;;;;;;;1.45;100.00;98862.56;5063355;28;20036;-81
2021/11/28 10:11:48;;;;;;;0.30;0.30;;;;;;;1.66;100.00;98876.03;5066730;28;20047;-82
2021/11/28 10:14:23;;;;;;;0.20;0.20;;;;;;;1.59;100.00;98872.78;5064318;28;20049;-82
2021/11/28 10:16:51;;;;;;;0.20;0.20;;;;;;;1.65;100.00;98867.16;5060090;28;20056;-81
2021/11/28 10:19:25;;;;;;;0.20;0.20;;;;;;;1.66;100.00;98867.97;5084833;28;20064;-81
2021/11/28 10:21:58;;;;;;;0.13;0.13;;;;;;;1.80;100.00;98873.63;5062568;28;20056;-82
2021/11/28 10:24:31;;;;;;;0.20;0.20;;;;;;;1.78;100.00;98870.41;5062100;28;20512;-82
2021/11/28 10:27:05;;;;;;;0.20;0.20;;;;;;;1.78;100.00;98870.41;5057963;28;20060;-82
2021/11/28 10:29:42;;;;;;;0.20;0.20;;;;;;;1.80;100.00;98870.94;5063954;28;20045;-82
2021/11/28 10:32:16;;;;;;;0.20;0.20;;;;;;;1.83;100.00;98873.09;5057706;28;20053;-82
2021/11/28 10:34:50;;;;;;;0.20;0.20;;;;;;;1.83;100.00;98871.22;5063359;28;20052;-82
2021/11/28 10:37:25;;;;;;;0.30;0.30;;;;;;;1.84;100.00;98882.75;5063857;28;20053;-82
2021/11/28 10:39:57;;;;;;;0.20;0.20;;;;;;;1.72;100.00;98863.44;5058828;28;20064;-82
2021/11/28 10:42:32;;;;;;;0.15;0.15;;;;;;;1.89;100.00;98873.91;5056548;28;20047;-82
2021/11/28 10:45:11;;;;;;;0.20;0.20;;;;;;;1.80;100.00;98866.38;5064474;28;20052;-83
2021/11/28 10:47:42;;;;;;;0.20;0.20;;;;;;;1.83;100.00;98868.53;5053033;28;20045;-82
2021/11/28 10:50:14;;;;;;;0.20;0.20;;;;;;;1.80;100.00;98868.28;5061017;28;20055;-82
2021/11/28 10:52:50;;;;;;;0.30;0.30;;;;;;;1.84;100.00;98880.09;5061725;28;20045;-82
2021/11/28 10:55:24;;;;;;;0.22;0.22;;;;;;;1.86;100.00;98883.28;5058773;28;20057;-82
2021/11/28 10:58:10;;;;;;;0.20;0.20;;;;;;;1.86;100.00;98880.59;5055766;28;20064;-82
2021/11/28 11:00:42;;;;;;;0.20;0.20;;;;;;;1.84;100.00;98883.56;5060666;28;20057;-81
2021/11/28 11:03:19;;;;;;;0.20;0.20;;;;;;;1.81;100.00;98886.78;5061255;28;20056;-82
2021/11/28 11:05:50;;;;;;;0.20;0.20;;;;;;;1.75;100.00;98878.97;5057706;28;20049;-82
2021/11/28 11:08:24;;;;;;;0.20;0.20;;;;;;;1.83;100.00;98884.63;5057426;28;20103;-82
2021/11/28 11:11:07;;;;;;;0.20;0.20;;;;;;;1.78;100.00;98875.75;5060258;28;20041;-82
2021/11/28 11:13:54;;;;;;;0.20;0.20;;;;;;;1.90;100.00;98891.63;5064273;28;20051;-81
2021/11/28 11:16:39;;;;;;;0.20;0.20;;;;;;;1.92;100.00;98892.97;5062419;28;20052;-82
2021/11/28 11:19:27;;;;;;;0.20;0.20;;;;;;;1.94;100.00;98898.06;5062583;28;20477;-82
2021/11/28 11:22:05;;;;;;;0.10;0.10;;;;;;;2.00;100.00;98900.50;5066871;28;20082;-82
2021/11/28 11:24:34;;;;;;;;;;;;;;;1.94;100.00;98892.69;5063585;28;20060;-82
2021/11/28 11:27:09;;;;;;;0.15;0.15;;;;;;;1.95;100.00;98887.06;5064487;28;19990;-82
2021/11/28 11:29:39;;;;;;;0.25;0.25;;;;;;;1.94;100.00;98892.69;5059199;28;20053;-82
2021/11/28 11:32:13;;;;;;;0.20;0.20;;;;;;;2.00;100.00;98896.97;5065440;28;20068;-81
2021/11/28 11:34:55;;;;;;;0.20;0.20;;;;;;;2.06;100.00;98895.94;5066441;28;20041;-82
2021/11/28 11:37:26;;;;;;;0.10;0.10;;;;;;;1.99;100.00;98904.22;5065649;28;20461;-82
2021/11/28 11:40:01;;;;;;;0.20;0.20;;;;;;;2.01;100.00;98896.72;5066300;28;20044;-82
2021/11/28 11:42:34;;;;;;;0.20;0.20;;;;;;;2.09;100.00;98906.13;5063485;28;20492;-82
2021/11/28 11:45:10;;;;;;;0.20;0.20;;;;;;;2.12;100.00;98902.91;5061466;28;20045;-82
2021/11/28 11:47:46;;;;;;;0.10;0.10;;;;;;;2.11;100.00;98889.75;5060116;28;20048;-82
2021/11/28 11:50:23;;;;;;;0.20;0.20;;;;;;;2.13;100.00;98890.31;5063383;28;20056;-81
2021/11/28 11:52:52;;;;;;;0.20;0.20;;;;;;;2.19;100.00;98902.63;5063800;28;20056;-81
2021/11/28 11:55:29;;;;;;;0.15;0.15;;;;;;;2.16;100.00;98901.28;5060190;28;20060;-81
2021/11/28 11:58:13;;;;;;;0.20;0.20;;;;;;;2.29;100.00;98896.47;5060676;28;20067;-80
2021/11/28 12:00:57;;;;;;;0.20;0.20;;;;;;;2.26;100.00;98892.44;5060468;28;20049;-81
2021/11/28 12:03:43;;;;;;;0.20;0.20;;;;;;;2.24;100.00;98883.84;5066299;28;20060;-81
2021/11/28 12:06:12;;;;;;;0.20;0.20;;;;;;;2.22;100.00;98886.00;5060078;28;20049;-80
2021/11/28 12:08:49;;;;;;;0.20;0.20;;;;;;;2.14;100.00;98879.28;5060511;28;20044;-81
2021/11/28 12:11:22;;;;;;;0.30;0.30;;;;;;;2.25;100.00;98885.47;5062640;28;20048;-81
2021/11/28 12:13:59;;;;;;;0.20;0.20;;;;;;;2.16;100.00;98893.25;5061215;28;20056;-80
2021/11/28 12:16:36;;;;;;;0.20;0.20;;;;;;;2.20;100.00;98894.31;5074439;28;20045;-81